Arma, KS (66712)

4:21 AM CST on February 11, 2016 (GMT -0600)
Frontenac Industrial Park | | Change Station
CLOSE
Current Station
Personal Weather Station
Location: Frontenac, KS
Elevation: 965 ft
Nearby Weather Stations

Elev 965 ft 37.49 °N, 94.70 °W | Updated 21 seconds ago

Mostly Cloudy
Mostly Cloudy
25.9 °F
Feels Like 26 °F
N
0.0
Wind Variable Wind from North
Gusts 0.0 mph

Today
High -- | Low -- °F
--% Chance of Precip.
Yesterday
High -- | Low -- °F
Precip. -- in
Pressure 30.07 in
Visibility 10.0 miles
Clouds Clear
Windchill 26 °F
Dew Point -23 °F
Humidity 10%
Rainfall 0.00 in
Snow Depth Not available.
7:13 AM 5:53 PM
Waxing Crescent, 11% visible
METAR KPTS 111015Z AUTO 03006KT 10SM CLR M01/M04 A3007 RMK AO2 T10061036
Pressure 30.07 in
Visibility 10.0 miles
Clouds Clear
Windchill 26 °F
Dew Point -23 °F
Humidity 10%
Rainfall 0.00 in
Snow Depth Not available.
7:13 AM 5:53 PM
Waxing Crescent, 11% visible
METAR KPTS 111015Z AUTO 03006KT 10SM CLR M01/M04 A3007 RMK AO2 T10061036

10-Day Weather Forecast

Almanac

Astronomy

Feb. 11, 2016 Rise Set
Actual Time
Civil Twilight
Nautical Twilight
Astronomical Twilight
Moon
Length of Visible Light
Length of Day
Tomorrow will be .
, % of the Moon is Illuminated

Today's Extremes

State Highs State Lows

Community

WunderPhotos

Upload Photos

1,892,030 photos uploaded!

WunderBlog® & News

Nearby

Air Quality

  Air Quality AQ Index Pollutant
Not available.

Snow Depth

Station Depth Elevation

Earthquake Activity

City Distance Mag. Time & Date
Minimum magnitude displayed is 2.5.

Coastal Water Temperatures

Place Temperature

Stations

Nearby Weather Stations

Station Location Temp. Windchill Dew Point Humidity Wind Precip. Elev Updated Type
                   

Watches & Warnings

There are currently no watches in effect.